sensor_id;sensor_type;location;lat;lon;timestamp;temperature;humidity
24384;DHT22;12504;52.870;8.798;2022-07-29T00:00:00;13.90;27.40
24384;DHT22;12504;52.870;8.798;2022-07-29T00:09:33;13.90;28.10
24384;DHT22;12504;52.870;8.798;2022-07-29T00:12:00;13.90;30.90
24384;DHT22;12504;52.870;8.798;2022-07-29T00:14:26;13.90;28.30
24384;DHT22;12504;52.870;8.798;2022-07-29T00:16:52;13.90;24.40
24384;DHT22;12504;52.870;8.798;2022-07-29T00:19:17;13.90;27.50
24384;DHT22;12504;52.870;8.798;2022-07-29T00:21:44;13.90;28.40
24384;DHT22;12504;52.870;8.798;2022-07-29T00:24:09;13.90;25.80
24384;DHT22;12504;52.870;8.798;2022-07-29T00:26:35;13.90;22.40
24384;DHT22;12504;52.870;8.798;2022-07-29T00:29:02;13.90;26.20
24384;DHT22;12504;52.870;8.798;2022-07-29T00:31:28;13.90;19.00
24384;DHT22;12504;52.870;8.798;2022-07-29T00:33:54;13.90;24.20
24384;DHT22;12504;52.870;8.798;2022-07-29T00:36:20;13.90;24.10
24384;DHT22;12504;52.870;8.798;2022-07-29T00:38:50;13.90;24.20
24384;DHT22;12504;52.870;8.798;2022-07-29T00:41:17;13.80;24.30
24384;DHT22;12504;52.870;8.798;2022-07-29T00:43:43;13.80;24.50
24384;DHT22;12504;52.870;8.798;2022-07-29T00:46:09;13.80;29.70
24384;DHT22;12504;52.870;8.798;2022-07-29T00:48:35;13.80;28.40
24384;DHT22;12504;52.870;8.798;2022-07-29T00:51:02;13.80;31.20
24384;DHT22;12504;52.870;8.798;2022-07-29T00:53:30;13.80;27.60
24384;DHT22;12504;52.870;8.798;2022-07-29T00:55:57;13.80;28.40
24384;DHT22;12504;52.870;8.798;2022-07-29T00:58:24;13.70;38.10
24384;DHT22;12504;52.870;8.798;2022-07-29T01:00:49;13.70;35.50
24384;DHT22;12504;52.870;8.798;2022-07-29T01:03:15;13.70;41.80
24384;DHT22;12504;52.870;8.798;2022-07-29T01:05:43;13.70;35.30
24384;DHT22;12504;52.870;8.798;2022-07-29T01:08:11;13.70;35.00
24384;DHT22;12504;52.870;8.798;2022-07-29T01:10:38;13.70;32.50
24384;DHT22;12504;52.870;8.798;2022-07-29T01:13:04;13.70;35.10
24384;DHT22;12504;52.870;8.798;2022-07-29T01:15:30;13.70;38.60
24384;DHT22;12504;52.870;8.798;2022-07-29T01:18:37;13.70;39.90
24384;DHT22;12504;52.870;8.798;2022-07-29T01:24:30;13.60;40.30
24384;DHT22;12504;52.870;8.798;2022-07-29T01:27:37;13.70;36.00
24384;DHT22;12504;52.870;8.798;2022-07-29T01:30:05;13.70;33.30
24384;DHT22;12504;52.870;8.798;2022-07-29T01:32:36;13.60;38.60
24384;DHT22;12504;52.870;8.798;2022-07-29T01:37:34;13.60;39.60
24384;DHT22;12504;52.870;8.798;2022-07-29T01:40:03;13.60;38.20
24384;DHT22;12504;52.870;8.798;2022-07-29T01:42:41;13.60;36.80
24384;DHT22;12504;52.870;8.798;2022-07-29T01:45:21;13.60;36.60
24384;DHT22;12504;52.870;8.798;2022-07-29T01:47:58;13.60;36.50
24384;DHT22;12504;52.870;8.798;2022-07-29T01:50:53;13.60;35.40
24384;DHT22;12504;52.870;8.798;2022-07-29T01:53:33;13.50;37.80
24384;DHT22;12504;52.870;8.798;2022-07-29T01:56:00;13.50;37.20
24384;DHT22;12504;52.870;8.798;2022-07-29T01:58:29;13.50;36.00
24384;DHT22;12504;52.870;8.798;2022-07-29T02:00:58;13.60;35.70
24384;DHT22;12504;52.870;8.798;2022-07-29T02:03:25;13.50;37.70
24384;DHT22;12504;52.870;8.798;2022-07-29T02:05:53;13.50;32.80
24384;DHT22;12504;52.870;8.798;2022-07-29T02:08:21;13.60;39.40
24384;DHT22;12504;52.870;8.798;2022-07-29T02:10:48;13.50;37.00
24384;DHT22;12504;52.870;8.798;2022-07-29T02:13:16;13.60;33.70
24384;DHT22;12504;52.870;8.798;2022-07-29T02:15:44;13.50;36.70
24384;DHT22;12504;52.870;8.798;2022-07-29T02:18:17;13.50;36.70
24384;DHT22;12504;52.870;8.798;2022-07-29T02:20:48;13.50;33.30
24384;DHT22;12504;52.870;8.798;2022-07-29T02:23:17;13.50;39.80
24384;DHT22;12504;52.870;8.798;2022-07-29T02:25:45;13.50;33.50
24384;DHT22;12504;52.870;8.798;2022-07-29T02:28:13;13.50;37.00
24384;DHT22;12504;52.870;8.798;2022-07-29T02:30:42;13.50;40.10
24384;DHT22;12504;52.870;8.798;2022-07-29T02:33:10;13.50;41.00
24384;DHT22;12504;52.870;8.798;2022-07-29T02:35:39;13.40;47.00
24384;DHT22;12504;52.870;8.798;2022-07-29T02:38:06;13.40;54.50
24384;DHT22;12504;52.870;8.798;2022-07-29T02:40:52;13.40;45.00
24384;DHT22;12504;52.870;8.798;2022-07-29T02:43:20;13.40;50.70
24384;DHT22;12504;52.870;8.798;2022-07-29T02:45:47;13.40;47.20
24384;DHT22;12504;52.870;8.798;2022-07-29T02:48:18;13.40;55.20
24384;DHT22;12504;52.870;8.798;2022-07-29T02:50:48;13.40;48.30
24384;DHT22;12504;52.870;8.798;2022-07-29T02:53:22;13.40;48.60
24384;DHT22;12504;52.870;8.798;2022-07-29T02:56:08;13.40;45.50
24384;DHT22;12504;52.870;8.798;2022-07-29T02:58:40;13.40;42.50
24384;DHT22;12504;52.870;8.798;2022-07-29T03:01:16;13.40;45.20
24384;DHT22;12504;52.870;8.798;2022-07-29T03:03:44;13.40;50.00
24384;DHT22;12504;52.870;8.798;2022-07-29T03:06:12;13.40;41.50
24384;DHT22;12504;52.870;8.798;2022-07-29T03:08:39;13.40;42.80
24384;DHT22;12504;52.870;8.798;2022-07-29T03:11:07;13.40;47.90
24384;DHT22;12504;52.870;8.798;2022-07-29T03:13:35;13.40;50.80
24384;DHT22;12504;52.870;8.798;2022-07-29T03:16:01;13.40;48.60
24384;DHT22;12504;52.870;8.798;2022-07-29T03:18:28;13.40;55.50
24384;DHT22;12504;52.870;8.798;2022-07-29T03:20:54;13.30;59.60
24384;DHT22;12504;52.870;8.798;2022-07-29T03:23:21;13.30;57.50
24384;DHT22;12504;52.870;8.798;2022-07-29T03:25:51;13.30;59.10
24384;DHT22;12504;52.870;8.798;2022-07-29T03:28:17;13.30;61.70
24384;DHT22;12504;52.870;8.798;2022-07-29T03:30:43;13.30;66.40
24384;DHT22;12504;52.870;8.798;2022-07-29T03:33:09;13.30;58.90
24384;DHT22;12504;52.870;8.798;2022-07-29T03:35:35;13.30;60.60
24384;DHT22;12504;52.870;8.798;2022-07-29T03:38:00;13.30;59.80
24384;DHT22;12504;52.870;8.798;2022-07-29T03:40:32;13.30;55.80
24384;DHT22;12504;52.870;8.798;2022-07-29T03:43:00;13.30;56.80
24384;DHT22;12504;52.870;8.798;2022-07-29T03:45:28;13.30;58.30
24384;DHT22;12504;52.870;8.798;2022-07-29T03:48:01;13.30;58.60
24384;DHT22;12504;52.870;8.798;2022-07-29T03:50:28;13.30;72.80
24384;DHT22;12504;52.870;8.798;2022-07-29T03:52:55;13.20;68.50
24384;DHT22;12504;52.870;8.798;2022-07-29T03:55:21;13.30;70.20
24384;DHT22;12504;52.870;8.798;2022-07-29T03:57:48;13.30;62.80
24384;DHT22;12504;52.870;8.798;2022-07-29T04:00:15;13.20;65.80
24384;DHT22;12504;52.870;8.798;2022-07-29T04:02:43;13.20;68.20
24384;DHT22;12504;52.870;8.798;2022-07-29T04:05:14;13.20;59.70
24384;DHT22;12504;52.870;8.798;2022-07-29T04:07:43;13.20;67.90
24384;DHT22;12504;52.870;8.798;2022-07-29T04:10:09;13.20;62.40
24384;DHT22;12504;52.870;8.798;2022-07-29T04:12:35;13.30;64.80
24384;DHT22;12504;52.870;8.798;2022-07-29T04:15:02;13.30;62.30
24384;DHT22;12504;52.870;8.798;2022-07-29T04:17:28;13.30;58.40
24384;DHT22;12504;52.870;8.798;2022-07-29T04:19:54;13.30;59.40
24384;DHT22;12504;52.870;8.798;2022-07-29T04:22:19;13.40;57.90
24384;DHT22;12504;52.870;8.798;2022-07-29T04:24:45;13.40;61.00
24384;DHT22;12504;52.870;8.798;2022-07-29T04:27:11;13.40;54.80
24384;DHT22;12504;52.870;8.798;2022-07-29T04:29:36;13.40;54.70
24384;DHT22;12504;52.870;8.798;2022-07-29T04:32:02;13.40;56.70
24384;DHT22;12504;52.870;8.798;2022-07-29T04:34:29;13.40;54.50
24384;DHT22;12504;52.870;8.798;2022-07-29T04:36:55;13.50;55.80
24384;DHT22;12504;52.870;8.798;2022-07-29T04:39:21;13.50;51.50
24384;DHT22;12504;52.870;8.798;2022-07-29T04:41:46;13.50;53.50
24384;DHT22;12504;52.870;8.798;2022-07-29T04:44:12;13.50;58.50
24384;DHT22;12504;52.870;8.798;2022-07-29T04:46:38;13.60;51.10
24384;DHT22;12504;52.870;8.798;2022-07-29T04:49:04;13.60;46.00
24384;DHT22;12504;52.870;8.798;2022-07-29T04:51:30;13.60;45.70
24384;DHT22;12504;52.870;8.798;2022-07-29T04:53:56;13.60;44.60
24384;DHT22;12504;52.870;8.798;2022-07-29T04:56:22;13.60;50.80
24384;DHT22;12504;52.870;8.798;2022-07-29T04:58:47;13.60;63.80
24384;DHT22;12504;52.870;8.798;2022-07-29T05:01:14;13.60;70.40
24384;DHT22;12504;52.870;8.798;2022-07-29T05:03:40;13.70;56.20
24384;DHT22;12504;52.870;8.798;2022-07-29T05:06:06;13.70;58.10
24384;DHT22;12504;52.870;8.798;2022-07-29T05:08:31;13.70;52.70
24384;DHT22;12504;52.870;8.798;2022-07-29T05:10:57;13.70;68.20
24384;DHT22;12504;52.870;8.798;2022-07-29T05:13:23;13.70;51.60
24384;DHT22;12504;52.870;8.798;2022-07-29T05:15:49;13.60;49.80
24384;DHT22;12504;52.870;8.798;2022-07-29T05:18:15;13.70;53.80
24384;DHT22;12504;52.870;8.798;2022-07-29T05:20:41;13.70;58.20
24384;DHT22;12504;52.870;8.798;2022-07-29T05:23:06;13.70;56.50
24384;DHT22;12504;52.870;8.798;2022-07-29T05:25:32;13.70;63.90
24384;DHT22;12504;52.870;8.798;2022-07-29T05:27:58;13.80;49.60
24384;DHT22;12504;52.870;8.798;2022-07-29T05:30:24;13.80;47.80
24384;DHT22;12504;52.870;8.798;2022-07-29T05:32:50;13.80;56.10
24384;DHT22;12504;52.870;8.798;2022-07-29T05:35:16;13.80;49.20
24384;DHT22;12504;52.870;8.798;2022-07-29T05:37:42;13.90;38.80
24384;DHT22;12504;52.870;8.798;2022-07-29T05:40:08;13.90;46.30
24384;DHT22;12504;52.870;8.798;2022-07-29T05:42:34;13.90;42.50
24384;DHT22;12504;52.870;8.798;2022-07-29T05:45:01;13.90;53.30
24384;DHT22;12504;52.870;8.798;2022-07-29T05:47:27;13.90;51.60
24384;DHT22;12504;52.870;8.798;2022-07-29T05:49:53;13.90;52.10
24384;DHT22;12504;52.870;8.798;2022-07-29T05:52:20;14.00;47.00
24384;DHT22;12504;52.870;8.798;2022-07-29T05:54:46;14.00;45.30
24384;DHT22;12504;52.870;8.798;2022-07-29T05:57:18;14.00;43.50
24384;DHT22;12504;52.870;8.798;2022-07-29T05:59:44;14.10;48.50
24384;DHT22;12504;52.870;8.798;2022-07-29T06:02:10;14.10;42.00
24384;DHT22;12504;52.870;8.798;2022-07-29T06:04:36;14.10;43.80
24384;DHT22;12504;52.870;8.798;2022-07-29T06:07:02;14.20;36.60
24384;DHT22;12504;52.870;8.798;2022-07-29T06:09:29;14.20;36.70
24384;DHT22;12504;52.870;8.798;2022-07-29T06:11:54;14.30;41.90
24384;DHT22;12504;52.870;8.798;2022-07-29T06:14:20;14.40;42.10
24384;DHT22;12504;52.870;8.798;2022-07-29T06:16:46;14.50;30.10
24384;DHT22;12504;52.870;8.798;2022-07-29T06:19:11;14.60;17.40
24384;DHT22;12504;52.870;8.798;2022-07-29T06:21:44;14.70;26.00
24384;DHT22;12504;52.870;8.798;2022-07-29T06:24:15;14.80;14.40
24384;DHT22;12504;52.870;8.798;2022-07-29T06:26:41;14.90;1.30
24384;DHT22;12504;52.870;8.798;2022-07-29T06:29:08;15.00;3.10
24384;DHT22;12504;52.870;8.798;2022-07-29T06:31:33;15.10;1.00
24384;DHT22;12504;52.870;8.798;2022-07-29T06:34:00;15.10;1.00
24384;DHT22;12504;52.870;8.798;2022-07-29T06:36:25;15.20;1.00
24384;DHT22;12504;52.870;8.798;2022-07-29T06:38:51;15.20;1.00
24384;DHT22;12504;52.870;8.798;2022-07-29T06:41:17;15.20;1.00
24384;DHT22;12504;52.870;8.798;2022-07-29T06:43:44;15.30;1.00
24384;DHT22;12504;52.870;8.798;2022-07-29T06:46:11;15.40;3.90
24384;DHT22;12504;52.870;8.798;2022-07-29T06:48:38;15.50;1.00
24384;DHT22;12504;52.870;8.798;2022-07-29T06:51:05;15.50;1.00
24384;DHT22;12504;52.870;8.798;2022-07-29T06:53:32;15.50;1.00
24384;DHT22;12504;52.870;8.798;2022-07-29T06:55:59;15.50;1.00
24384;DHT22;12504;52.870;8.798;2022-07-29T06:58:26;15.70;1.00
24384;DHT22;12504;52.870;8.798;2022-07-29T07:00:55;15.90;1.00
24384;DHT22;12504;52.870;8.798;2022-07-29T07:03:21;16.10;1.00
24384;DHT22;12504;52.870;8.798;2022-07-29T07:05:48;16.30;1.00
24384;DHT22;12504;52.870;8.798;2022-07-29T07:08:14;16.40;1.00
24384;DHT22;12504;52.870;8.798;2022-07-29T07:10:42;16.60;1.00
24384;DHT22;12504;52.870;8.798;2022-07-29T07:13:07;16.70;1.00
24384;DHT22;12504;52.870;8.798;2022-07-29T07:15:35;16.80;1.00
24384;DHT22;12504;52.870;8.798;2022-07-29T07:18:01;16.90;1.00
24384;DHT22;12504;52.870;8.798;2022-07-29T07:20:26;17.10;1.00
24384;DHT22;12504;52.870;8.798;2022-07-29T07:22:52;17.20;1.00
24384;DHT22;12504;52.870;8.798;2022-07-29T07:25:18;17.30;1.00
24384;DHT22;12504;52.870;8.798;2022-07-29T07:27:44;17.40;1.00
24384;DHT22;12504;52.870;8.798;2022-07-29T07:30:10;17.50;1.00
24384;DHT22;12504;52.870;8.798;2022-07-29T07:32:36;17.70;1.00
24384;DHT22;12504;52.870;8.798;2022-07-29T07:35:04;17.80;1.00
24384;DHT22;12504;52.870;8.798;2022-07-29T07:37:30;18.00;1.00
24384;DHT22;12504;52.870;8.798;2022-07-29T07:39:56;18.20;1.00
24384;DHT22;12504;52.870;8.798;2022-07-29T07:42:21;18.40;1.00
24384;DHT22;12504;52.870;8.798;2022-07-29T07:44:47;18.60;1.00
24384;DHT22;12504;52.870;8.798;2022-07-29T07:47:14;18.80;99.90
24384;DHT22;12504;52.870;8.798;2022-07-29T07:49:40;19.00;99.90
24384;DHT22;12504;52.870;8.798;2022-07-29T07:52:06;19.20;99.90
24384;DHT22;12504;52.870;8.798;2022-07-29T07:54:31;19.40;99.90
24384;DHT22;12504;52.870;8.798;2022-07-29T07:56:57;19.60;99.90
24384;DHT22;12504;52.870;8.798;2022-07-29T07:59:23;19.70;99.90
24384;DHT22;12504;52.870;8.798;2022-07-29T08:01:50;19.70;99.90
24384;DHT22;12504;52.870;8.798;2022-07-29T08:04:15;19.70;99.90
24384;DHT22;12504;52.870;8.798;2022-07-29T08:06:41;19.60;99.90
24384;DHT22;12504;52.870;8.798;2022-07-29T08:09:07;19.40;99.90
24384;DHT22;12504;52.870;8.798;2022-07-29T08:11:33;19.30;99.90
24384;DHT22;12504;52.870;8.798;2022-07-29T08:13:59;19.30;99.90
24384;DHT22;12504;52.870;8.798;2022-07-29T08:16:27;19.40;99.90
24384;DHT22;12504;52.870;8.798;2022-07-29T08:18:53;19.50;99.90
24384;DHT22;12504;52.870;8.798;2022-07-29T08:21:23;19.70;99.90
24384;DHT22;12504;52.870;8.798;2022-07-29T08:23:50;19.90;99.90
24384;DHT22;12504;52.870;8.798;2022-07-29T08:26:19;20.10;99.90
24384;DHT22;12504;52.870;8.798;2022-07-29T08:28:46;20.40;99.90
24384;DHT22;12504;52.870;8.798;2022-07-29T08:31:14;20.60;99.90
24384;DHT22;12504;52.870;8.798;2022-07-29T08:33:40;20.60;1.00
24384;DHT22;12504;52.870;8.798;2022-07-29T08:36:06;20.70;1.00
24384;DHT22;12504;52.870;8.798;2022-07-29T08:38:32;20.70;1.00
24384;DHT22;12504;52.870;8.798;2022-07-29T08:40:58;20.60;1.00
24384;DHT22;12504;52.870;8.798;2022-07-29T08:43:27;20.80;1.00
24384;DHT22;12504;52.870;8.798;2022-07-29T08:45:53;20.80;1.00
24384;DHT22;12504;52.870;8.798;2022-07-29T08:48:21;21.00;1.00
24384;DHT22;12504;52.870;8.798;2022-07-29T08:50:49;21.00;1.00
24384;DHT22;12504;52.870;8.798;2022-07-29T08:53:17;21.20;1.00
24384;DHT22;12504;52.870;8.798;2022-07-29T08:55:44;21.40;1.00
24384;DHT22;12504;52.870;8.798;2022-07-29T08:58:11;21.60;1.00
24384;DHT22;12504;52.870;8.798;2022-07-29T09:00:44;21.70;1.00
24384;DHT22;12504;52.870;8.798;2022-07-29T09:03:16;21.80;1.00
24384;DHT22;12504;52.870;8.798;2022-07-29T09:05:45;21.90;1.00
24384;DHT22;12504;52.870;8.798;2022-07-29T09:08:12;22.00;1.00
24384;DHT22;12504;52.870;8.798;2022-07-29T09:10:38;22.00;1.00
24384;DHT22;12504;52.870;8.798;2022-07-29T09:13:04;22.00;1.00
24384;DHT22;12504;52.870;8.798;2022-07-29T09:15:30;22.00;1.00
24384;DHT22;12504;52.870;8.798;2022-07-29T09:17:56;22.10;1.00
24384;DHT22;12504;52.870;8.798;2022-07-29T09:20:24;22.30;1.00
24384;DHT22;12504;52.870;8.798;2022-07-29T09:22:51;22.50;1.00
24384;DHT22;12504;52.870;8.798;2022-07-29T09:25:35;22.40;1.00
24384;DHT22;12504;52.870;8.798;2022-07-29T09:28:13;22.40;99.90
24384;DHT22;12504;52.870;8.798;2022-07-29T09:30:58;22.40;99.90
24384;DHT22;12504;52.870;8.798;2022-07-29T09:33:31;22.30;99.90
24384;DHT22;12504;52.870;8.798;2022-07-29T09:36:06;22.40;99.90
24384;DHT22;12504;52.870;8.798;2022-07-29T09:38:33;22.30;99.90
24384;DHT22;12504;52.870;8.798;2022-07-29T09:41:00;22.50;99.90
24384;DHT22;12504;52.870;8.798;2022-07-29T09:43:26;22.50;99.90
24384;DHT22;12504;52.870;8.798;2022-07-29T09:45:52;22.70;99.90
24384;DHT22;12504;52.870;8.798;2022-07-29T09:48:20;22.90;99.90
24384;DHT22;12504;52.870;8.798;2022-07-29T09:50:46;22.80;99.90
24384;DHT22;12504;52.870;8.798;2022-07-29T09:53:35;22.80;99.90
24384;DHT22;12504;52.870;8.798;2022-07-29T09:56:02;22.90;99.90
24384;DHT22;12504;52.870;8.798;2022-07-29T09:58:28;22.70;99.90
24384;DHT22;12504;52.870;8.798;2022-07-29T10:00:54;22.70;99.90
24384;DHT22;12504;52.870;8.798;2022-07-29T10:03:22;22.70;99.90
24384;DHT22;12504;52.870;8.798;2022-07-29T10:06:09;22.80;99.90
24384;DHT22;12504;52.870;8.798;2022-07-29T10:08:36;22.80;99.90
24384;DHT22;12504;52.870;8.798;2022-07-29T10:11:16;23.00;99.90
24384;DHT22;12504;52.870;8.798;2022-07-29T10:13:43;23.10;99.90
24384;DHT22;12504;52.870;8.798;2022-07-29T10:16:10;23.30;99.90
24384;DHT22;12504;52.870;8.798;2022-07-29T10:18:43;23.40;99.90
24384;DHT22;12504;52.870;8.798;2022-07-29T10:21:09;23.60;99.90
24384;DHT22;12504;52.870;8.798;2022-07-29T10:23:35;23.70;99.90
24384;DHT22;12504;52.870;8.798;2022-07-29T10:26:03;23.80;99.90
24384;DHT22;12504;52.870;8.798;2022-07-29T10:28:32;23.90;99.90
24384;DHT22;12504;52.870;8.798;2022-07-29T10:31:08;24.30;99.90
24384;DHT22;12504;52.870;8.798;2022-07-29T10:34:13;24.50;99.90
24384;DHT22;12504;52.870;8.798;2022-07-29T10:36:54;24.50;99.90
24384;DHT22;12504;52.870;8.798;2022-07-29T10:39:54;24.60;99.90
24384;DHT22;12504;52.870;8.798;2022-07-29T10:42:23;24.80;99.90
24384;DHT22;12504;52.870;8.798;2022-07-29T10:44:50;24.80;99.90
24384;DHT22;12504;52.870;8.798;2022-07-29T10:47:24;24.80;99.90
24384;DHT22;12504;52.870;8.798;2022-07-29T10:50:00;24.70;99.90
24384;DHT22;12504;52.870;8.798;2022-07-29T10:55:34;24.80;99.90
24384;DHT22;12504;52.870;8.798;2022-07-29T10:58:18;25.20;99.90
24384;DHT22;12504;52.870;8.798;2022-07-29T11:00:50;25.40;53.00
24384;DHT22;12504;52.870;8.798;2022-07-29T11:06:06;25.60;22.20
24384;DHT22;12504;52.870;8.798;2022-07-29T11:08:31;25.90;1.00
24384;DHT22;12504;52.870;8.798;2022-07-29T11:13:49;27.00;1.00
24384;DHT22;12504;52.870;8.798;2022-07-29T11:16:21;27.60;1.00
24384;DHT22;12504;52.870;8.798;2022-07-29T11:21:41;28.80;1.00
24384;DHT22;12504;52.870;8.798;2022-07-29T11:24:21;28.60;99.90
24384;DHT22;12504;52.870;8.798;2022-07-29T11:27:18;28.40;99.90
24384;DHT22;12504;52.870;8.798;2022-07-29T11:32:18;28.50;99.90
24384;DHT22;12504;52.870;8.798;2022-07-29T11:34:46;28.60;99.90
24384;DHT22;12504;52.870;8.798;2022-07-29T11:47:35;26.70;99.90
24384;DHT22;12504;52.870;8.798;2022-07-29T11:50:06;26.60;99.90
24384;DHT22;12504;52.870;8.798;2022-07-29T11:52:40;26.40;99.90
24384;DHT22;12504;52.870;8.798;2022-07-29T11:55:16;26.20;62.00
24384;DHT22;12504;52.870;8.798;2022-07-29T11:57:57;26.00;83.40
24384;DHT22;12504;52.870;8.798;2022-07-29T12:00:34;25.90;99.90
24384;DHT22;12504;52.870;8.798;2022-07-29T12:03:04;25.90;99.90
24384;DHT22;12504;52.870;8.798;2022-07-29T12:05:45;26.00;91.60
24384;DHT22;12504;52.870;8.798;2022-07-29T12:08:17;26.30;99.90
24384;DHT22;12504;52.870;8.798;2022-07-29T12:10:45;26.90;99.90
24384;DHT22;12504;52.870;8.798;2022-07-29T12:13:13;27.10;99.90
24384;DHT22;12504;52.870;8.798;2022-07-29T12:15:39;27.10;14.10
24384;DHT22;12504;52.870;8.798;2022-07-29T12:18:17;27.20;34.10
24384;DHT22;12504;52.870;8.798;2022-07-29T12:20:43;27.40;25.90
24384;DHT22;12504;52.870;8.798;2022-07-29T12:23:10;27.40;23.30
24384;DHT22;12504;52.870;8.798;2022-07-29T12:25:38;27.20;1.00
24384;DHT22;12504;52.870;8.798;2022-07-29T12:28:12;26.90;1.00
24384;DHT22;12504;52.870;8.798;2022-07-29T12:30:44;26.70;1.00
24384;DHT22;12504;52.870;8.798;2022-07-29T12:33:21;26.60;1.00
24384;DHT22;12504;52.870;8.798;2022-07-29T12:35:51;26.30;1.00
24384;DHT22;12504;52.870;8.798;2022-07-29T12:38:17;26.00;1.00
24384;DHT22;12504;52.870;8.798;2022-07-29T12:40:43;25.90;1.00
24384;DHT22;12504;52.870;8.798;2022-07-29T12:43:18;25.60;1.00
24384;DHT22;12504;52.870;8.798;2022-07-29T12:45:48;25.50;1.00
24384;DHT22;12504;52.870;8.798;2022-07-29T12:48:15;25.40;1.00
24384;DHT22;12504;52.870;8.798;2022-07-29T12:50:58;25.20;1.00
24384;DHT22;12504;52.870;8.798;2022-07-29T12:53:24;25.10;1.00
24384;DHT22;12504;52.870;8.798;2022-07-29T12:55:52;25.00;4.30
24384;DHT22;12504;52.870;8.798;2022-07-29T12:58:27;24.90;1.00
24384;DHT22;12504;52.870;8.798;2022-07-29T13:01:00;25.00;52.90
24384;DHT22;12504;52.870;8.798;2022-07-29T13:03:27;25.00;96.40
24384;DHT22;12504;52.870;8.798;2022-07-29T13:05:53;24.90;90.20
24384;DHT22;12504;52.870;8.798;2022-07-29T13:08:18;24.80;99.90
24384;DHT22;12504;52.870;8.798;2022-07-29T13:10:45;24.50;99.90
24384;DHT22;12504;52.870;8.798;2022-07-29T13:13:13;24.80;99.90
24384;DHT22;12504;52.870;8.798;2022-07-29T13:15:45;24.90;99.90
24384;DHT22;12504;52.870;8.798;2022-07-29T13:20:53;25.30;99.90
24384;DHT22;12504;52.870;8.798;2022-07-29T13:23:19;25.50;99.90
24384;DHT22;12504;52.870;8.798;2022-07-29T13:25:45;25.90;99.90
24384;DHT22;12504;52.870;8.798;2022-07-29T13:28:11;26.20;99.90
24384;DHT22;12504;52.870;8.798;2022-07-29T13:30:39;26.20;99.90
24384;DHT22;12504;52.870;8.798;2022-07-29T13:33:06;26.30;99.90
24384;DHT22;12504;52.870;8.798;2022-07-29T13:35:32;26.30;99.90
24384;DHT22;12504;52.870;8.798;2022-07-29T13:37:58;26.40;99.90
24384;DHT22;12504;52.870;8.798;2022-07-29T13:40:24;26.50;99.90
24384;DHT22;12504;52.870;8.798;2022-07-29T13:42:49;26.50;99.90
24384;DHT22;12504;52.870;8.798;2022-07-29T13:45:15;26.60;99.90
24384;DHT22;12504;52.870;8.798;2022-07-29T13:47:41;26.60;99.90
24384;DHT22;12504;52.870;8.798;2022-07-29T13:50:08;26.40;99.90
24384;DHT22;12504;52.870;8.798;2022-07-29T13:52:36;26.50;99.90
24384;DHT22;12504;52.870;8.798;2022-07-29T13:55:02;26.40;99.90
24384;DHT22;12504;52.870;8.798;2022-07-29T13:57:30;26.40;99.90
24384;DHT22;12504;52.870;8.798;2022-07-29T13:59:56;26.30;99.90
24384;DHT22;12504;52.870;8.798;2022-07-29T14:02:22;26.10;99.90
24384;DHT22;12504;52.870;8.798;2022-07-29T14:04:48;26.00;99.90
24384;DHT22;12504;52.870;8.798;2022-07-29T14:07:13;26.00;99.90
24384;DHT22;12504;52.870;8.798;2022-07-29T14:09:39;25.90;99.90
24384;DHT22;12504;52.870;8.798;2022-07-29T14:12:05;25.90;99.90
24384;DHT22;12504;52.870;8.798;2022-07-29T14:14:31;25.80;99.90
24384;DHT22;12504;52.870;8.798;2022-07-29T14:16:58;25.60;99.90
24384;DHT22;12504;52.870;8.798;2022-07-29T14:19:24;25.60;99.90
24384;DHT22;12504;52.870;8.798;2022-07-29T14:21:49;25.50;99.90
24384;DHT22;12504;52.870;8.798;2022-07-29T14:24:15;25.40;99.90
24384;DHT22;12504;52.870;8.798;2022-07-29T14:26:41;25.30;99.90
24384;DHT22;12504;52.870;8.798;2022-07-29T14:29:06;25.20;99.90
24384;DHT22;12504;52.870;8.798;2022-07-29T14:31:32;25.20;99.90
24384;DHT22;12504;52.870;8.798;2022-07-29T14:33:58;25.10;99.90
24384;DHT22;12504;52.870;8.798;2022-07-29T14:36:24;25.20;99.90
24384;DHT22;12504;52.870;8.798;2022-07-29T14:38:49;25.20;99.90
24384;DHT22;12504;52.870;8.798;2022-07-29T14:41:15;25.20;99.90
24384;DHT22;12504;52.870;8.798;2022-07-29T14:43:41;25.10;99.90
24384;DHT22;12504;52.870;8.798;2022-07-29T14:46:06;25.00;99.90
24384;DHT22;12504;52.870;8.798;2022-07-29T14:48:33;24.90;99.90
24384;DHT22;12504;52.870;8.798;2022-07-29T14:50:58;24.90;99.90
24384;DHT22;12504;52.870;8.798;2022-07-29T14:53:24;25.00;99.90
24384;DHT22;12504;52.870;8.798;2022-07-29T14:55:50;25.00;99.90
24384;DHT22;12504;52.870;8.798;2022-07-29T14:58:16;25.00;99.90
24384;DHT22;12504;52.870;8.798;2022-07-29T15:00:41;24.90;99.90
24384;DHT22;12504;52.870;8.798;2022-07-29T15:03:07;25.00;99.90
24384;DHT22;12504;52.870;8.798;2022-07-29T15:05:35;25.00;99.90
24384;DHT22;12504;52.870;8.798;2022-07-29T15:08:02;24.90;99.90
24384;DHT22;12504;52.870;8.798;2022-07-29T15:10:28;24.90;99.90
24384;DHT22;12504;52.870;8.798;2022-07-29T15:12:54;24.90;99.90
24384;DHT22;12504;52.870;8.798;2022-07-29T15:15:21;25.00;99.90
24384;DHT22;12504;52.870;8.798;2022-07-29T15:17:47;25.00;99.90
24384;DHT22;12504;52.870;8.798;2022-07-29T15:20:13;25.10;99.90
24384;DHT22;12504;52.870;8.798;2022-07-29T15:22:39;25.20;99.90
24384;DHT22;12504;52.870;8.798;2022-07-29T15:25:07;25.30;99.90
24384;DHT22;12504;52.870;8.798;2022-07-29T15:27:32;25.30;99.90
24384;DHT22;12504;52.870;8.798;2022-07-29T15:29:58;25.30;99.90
24384;DHT22;12504;52.870;8.798;2022-07-29T15:32:23;25.20;99.90
24384;DHT22;12504;52.870;8.798;2022-07-29T15:34:49;24.90;99.90
24384;DHT22;12504;52.870;8.798;2022-07-29T15:37:15;24.80;99.90
24384;DHT22;12504;52.870;8.798;2022-07-29T15:39:41;24.70;99.90
24384;DHT22;12504;52.870;8.798;2022-07-29T15:42:06;24.60;99.90
24384;DHT22;12504;52.870;8.798;2022-07-29T15:44:32;24.60;99.90
24384;DHT22;12504;52.870;8.798;2022-07-29T15:46:58;24.60;99.90
24384;DHT22;12504;52.870;8.798;2022-07-29T15:49:36;24.60;99.90
24384;DHT22;12504;52.870;8.798;2022-07-29T15:52:05;24.50;99.90
24384;DHT22;12504;52.870;8.798;2022-07-29T15:54:38;24.40;99.90
24384;DHT22;12504;52.870;8.798;2022-07-29T15:57:06;24.30;99.90
24384;DHT22;12504;52.870;8.798;2022-07-29T15:59:32;24.20;99.90
24384;DHT22;12504;52.870;8.798;2022-07-29T16:01:58;24.20;99.90
24384;DHT22;12504;52.870;8.798;2022-07-29T16:04:24;24.20;99.90
24384;DHT22;12504;52.870;8.798;2022-07-29T16:06:49;24.20;99.90
24384;DHT22;12504;52.870;8.798;2022-07-29T16:09:15;24.10;99.90
24384;DHT22;12504;52.870;8.798;2022-07-29T16:11:41;24.00;99.90
24384;DHT22;12504;52.870;8.798;2022-07-29T16:14:08;24.00;99.90
24384;DHT22;12504;52.870;8.798;2022-07-29T16:16:35;23.90;99.90
24384;DHT22;12504;52.870;8.798;2022-07-29T16:19:02;23.80;99.90
24384;DHT22;12504;52.870;8.798;2022-07-29T16:21:27;23.80;99.90